sensor_id;sensor_type;location;lat;lon;timestamp;P1;durP1;ratioP1;P2;durP2;ratioP2
41739;SDS011;27422;52.444;13.300;2023-04-06T00:00:25;6.30;;;3.55;;
41739;SDS011;27422;52.444;13.300;2023-04-06T00:02:51;7.95;;;3.33;;
41739;SDS011;27422;52.444;13.300;2023-04-06T00:05:17;7.32;;;3.85;;
41739;SDS011;27422;52.444;13.300;2023-04-06T00:07:46;7.43;;;3.50;;
41739;SDS011;27422;52.444;13.300;2023-04-06T00:10:11;9.18;;;3.90;;
41739;SDS011;27422;52.444;13.300;2023-04-06T00:12:37;6.30;;;3.63;;
41739;SDS011;27422;52.444;13.300;2023-04-06T00:15:02;7.88;;;3.97;;
41739;SDS011;27422;52.444;13.300;2023-04-06T00:17:30;8.20;;;4.20;;
41739;SDS011;27422;52.444;13.300;2023-04-06T00:19:56;7.43;;;3.80;;
41739;SDS011;27422;52.444;13.300;2023-04-06T00:22:21;5.82;;;3.42;;
41739;SDS011;27422;52.444;13.300;2023-04-06T00:24:46;7.07;;;3.63;;
41739;SDS011;27422;52.444;13.300;2023-04-06T00:27:12;7.07;;;3.38;;
41739;SDS011;27422;52.444;13.300;2023-04-06T00:29:39;8.18;;;3.75;;
41739;SDS011;27422;52.444;13.300;2023-04-06T00:32:05;6.38;;;3.72;;
41739;SDS011;27422;52.444;13.300;2023-04-06T00:34:30;6.00;;;3.60;;
41739;SDS011;27422;52.444;13.300;2023-04-06T00:36:56;6.30;;;3.60;;
41739;SDS011;27422;52.444;13.300;2023-04-06T00:39:21;5.75;;;3.67;;
41739;SDS011;27422;52.444;13.300;2023-04-06T00:41:49;7.28;;;4.57;;
41739;SDS011;27422;52.444;13.300;2023-04-06T00:44:15;5.53;;;3.50;;
41739;SDS011;27422;52.444;13.300;2023-04-06T00:46:41;7.20;;;3.55;;
41739;SDS011;27422;52.444;13.300;2023-04-06T00:49:06;10.38;;;4.07;;
41739;SDS011;27422;52.444;13.300;2023-04-06T00:51:32;7.45;;;3.72;;
41739;SDS011;27422;52.444;13.300;2023-04-06T00:53:57;7.30;;;3.75;;
41739;SDS011;27422;52.444;13.300;2023-04-06T00:56:23;6.25;;;3.30;;
41739;SDS011;27422;52.444;13.300;2023-04-06T00:58:49;7.25;;;3.75;;
41739;SDS011;27422;52.444;13.300;2023-04-06T01:01:15;6.65;;;4.07;;
41739;SDS011;27422;52.444;13.300;2023-04-06T01:03:41;5.45;;;3.50;;
41739;SDS011;27422;52.444;13.300;2023-04-06T01:06:07;7.70;;;4.00;;
41739;SDS011;27422;52.444;13.300;2023-04-06T01:08:32;8.35;;;3.58;;
41739;SDS011;27422;52.444;13.300;2023-04-06T01:10:59;6.55;;;3.47;;
41739;SDS011;27422;52.444;13.300;2023-04-06T01:15:51;5.78;;;3.40;;
41739;SDS011;27422;52.444;13.300;2023-04-06T01:18:16;9.10;;;3.50;;
41739;SDS011;27422;52.444;13.300;2023-04-06T01:20:42;8.73;;;4.78;;
41739;SDS011;27422;52.444;13.300;2023-04-06T01:23:08;8.25;;;3.72;;
41739;SDS011;27422;52.444;13.300;2023-04-06T01:25:33;7.13;;;3.83;;
41739;SDS011;27422;52.444;13.300;2023-04-06T01:27:59;7.38;;;3.75;;
41739;SDS011;27422;52.444;13.300;2023-04-06T01:30:25;8.00;;;3.90;;
41739;SDS011;27422;52.444;13.300;2023-04-06T01:32:50;6.43;;;3.88;;
41739;SDS011;27422;52.444;13.300;2023-04-06T01:35:17;7.15;;;4.00;;
41739;SDS011;27422;52.444;13.300;2023-04-06T01:37:43;8.63;;;3.72;;
41739;SDS011;27422;52.444;13.300;2023-04-06T01:40:09;7.05;;;3.85;;
41739;SDS011;27422;52.444;13.300;2023-04-06T01:42:35;7.32;;;3.88;;
41739;SDS011;27422;52.444;13.300;2023-04-06T01:45:00;8.23;;;3.83;;
41739;SDS011;27422;52.444;13.300;2023-04-06T01:47:26;7.40;;;3.78;;
41739;SDS011;27422;52.444;13.300;2023-04-06T01:49:51;9.18;;;4.43;;
41739;SDS011;27422;52.444;13.300;2023-04-06T01:52:17;7.75;;;3.70;;
41739;SDS011;27422;52.444;13.300;2023-04-06T01:54:43;8.88;;;4.05;;
41739;SDS011;27422;52.444;13.300;2023-04-06T01:57:09;7.15;;;3.60;;
41739;SDS011;27422;52.444;13.300;2023-04-06T01:59:35;6.55;;;4.10;;
41739;SDS011;27422;52.444;13.300;2023-04-06T02:02:00;8.18;;;3.83;;
41739;SDS011;27422;52.444;13.300;2023-04-06T02:04:26;7.40;;;3.92;;
41739;SDS011;27422;52.444;13.300;2023-04-06T02:06:51;8.15;;;3.47;;
41739;SDS011;27422;52.444;13.300;2023-04-06T02:09:17;8.38;;;4.38;;
41739;SDS011;27422;52.444;13.300;2023-04-06T02:11:42;6.97;;;4.05;;
41739;SDS011;27422;52.444;13.300;2023-04-06T02:14:07;8.57;;;3.83;;
41739;SDS011;27422;52.444;13.300;2023-04-06T02:16:33;7.50;;;4.28;;
41739;SDS011;27422;52.444;13.300;2023-04-06T02:18:58;8.38;;;4.20;;
41739;SDS011;27422;52.444;13.300;2023-04-06T02:21:24;8.32;;;4.25;;
41739;SDS011;27422;52.444;13.300;2023-04-06T02:23:49;7.45;;;3.78;;
41739;SDS011;27422;52.444;13.300;2023-04-06T02:26:14;6.90;;;4.10;;
41739;SDS011;27422;52.444;13.300;2023-04-06T02:28:40;7.28;;;4.20;;
41739;SDS011;27422;52.444;13.300;2023-04-06T02:31:09;8.55;;;4.07;;
41739;SDS011;27422;52.444;13.300;2023-04-06T02:33:34;8.52;;;4.20;;
41739;SDS011;27422;52.444;13.300;2023-04-06T02:35:59;7.95;;;4.00;;
41739;SDS011;27422;52.444;13.300;2023-04-06T02:38:25;7.20;;;3.97;;
41739;SDS011;27422;52.444;13.300;2023-04-06T02:40:50;7.07;;;4.13;;
41739;SDS011;27422;52.444;13.300;2023-04-06T02:43:16;9.68;;;3.97;;
41739;SDS011;27422;52.444;13.300;2023-04-06T02:45:42;8.57;;;4.25;;
41739;SDS011;27422;52.444;13.300;2023-04-06T02:48:07;7.20;;;3.75;;
41739;SDS011;27422;52.444;13.300;2023-04-06T02:50:33;7.38;;;3.72;;
41739;SDS011;27422;52.444;13.300;2023-04-06T02:52:58;6.72;;;3.85;;
41739;SDS011;27422;52.444;13.300;2023-04-06T02:55:23;8.75;;;4.50;;
41739;SDS011;27422;52.444;13.300;2023-04-06T02:57:49;8.90;;;3.92;;
41739;SDS011;27422;52.444;13.300;2023-04-06T03:00:14;8.65;;;3.97;;
41739;SDS011;27422;52.444;13.300;2023-04-06T03:02:40;6.95;;;4.20;;
41739;SDS011;27422;52.444;13.300;2023-04-06T03:05:06;8.02;;;3.80;;
41739;SDS011;27422;52.444;13.300;2023-04-06T03:07:31;8.32;;;4.25;;
41739;SDS011;27422;52.444;13.300;2023-04-06T03:09:57;6.70;;;3.65;;
41739;SDS011;27422;52.444;13.300;2023-04-06T03:12:22;6.93;;;3.90;;
41739;SDS011;27422;52.444;13.300;2023-04-06T03:14:48;6.93;;;4.07;;
41739;SDS011;27422;52.444;13.300;2023-04-06T03:17:13;6.35;;;3.50;;
41739;SDS011;27422;52.444;13.300;2023-04-06T03:19:39;8.85;;;4.70;;
41739;SDS011;27422;52.444;13.300;2023-04-06T03:22:05;7.53;;;4.20;;
41739;SDS011;27422;52.444;13.300;2023-04-06T03:24:30;7.35;;;4.07;;
41739;SDS011;27422;52.444;13.300;2023-04-06T03:26:56;7.82;;;4.18;;
41739;SDS011;27422;52.444;13.300;2023-04-06T03:29:21;6.53;;;3.88;;
41739;SDS011;27422;52.444;13.300;2023-04-06T03:31:47;8.15;;;3.83;;
41739;SDS011;27422;52.444;13.300;2023-04-06T03:34:12;9.77;;;4.22;;
41739;SDS011;27422;52.444;13.300;2023-04-06T03:36:37;6.70;;;4.13;;
41739;SDS011;27422;52.444;13.300;2023-04-06T03:39:03;7.53;;;3.97;;
41739;SDS011;27422;52.444;13.300;2023-04-06T03:41:28;7.07;;;3.92;;
41739;SDS011;27422;52.444;13.300;2023-04-06T03:43:54;7.60;;;3.97;;
41739;SDS011;27422;52.444;13.300;2023-04-06T03:46:19;10.30;;;4.97;;
41739;SDS011;27422;52.444;13.300;2023-04-06T03:48:45;7.90;;;4.28;;
41739;SDS011;27422;52.444;13.300;2023-04-06T03:51:12;7.28;;;4.13;;
41739;SDS011;27422;52.444;13.300;2023-04-06T03:53:38;7.38;;;3.75;;
41739;SDS011;27422;52.444;13.300;2023-04-06T03:56:03;7.60;;;4.10;;
41739;SDS011;27422;52.444;13.300;2023-04-06T03:58:29;6.63;;;3.95;;
41739;SDS011;27422;52.444;13.300;2023-04-06T04:00:55;8.05;;;4.00;;
41739;SDS011;27422;52.444;13.300;2023-04-06T04:03:21;6.47;;;3.90;;
41739;SDS011;27422;52.444;13.300;2023-04-06T04:05:48;8.40;;;3.90;;
41739;SDS011;27422;52.444;13.300;2023-04-06T04:08:15;6.33;;;3.87;;
41739;SDS011;27422;52.444;13.300;2023-04-06T04:10:40;8.07;;;3.85;;
41739;SDS011;27422;52.444;13.300;2023-04-06T04:13:06;7.68;;;4.10;;
41739;SDS011;27422;52.444;13.300;2023-04-06T04:15:31;6.90;;;4.13;;
41739;SDS011;27422;52.444;13.300;2023-04-06T04:17:56;8.18;;;3.83;;
41739;SDS011;27422;52.444;13.300;2023-04-06T04:20:22;7.25;;;4.05;;
41739;SDS011;27422;52.444;13.300;2023-04-06T04:22:47;12.77;;;4.47;;
41739;SDS011;27422;52.444;13.300;2023-04-06T04:25:13;7.00;;;4.13;;
41739;SDS011;27422;52.444;13.300;2023-04-06T04:27:38;6.20;;;3.80;;
41739;SDS011;27422;52.444;13.300;2023-04-06T04:30:04;8.88;;;4.35;;
41739;SDS011;27422;52.444;13.300;2023-04-06T04:32:31;11.10;;;4.75;;
41739;SDS011;27422;52.444;13.300;2023-04-06T04:34:56;7.47;;;4.22;;
41739;SDS011;27422;52.444;13.300;2023-04-06T04:37:22;8.77;;;4.30;;
41739;SDS011;27422;52.444;13.300;2023-04-06T04:39:47;7.10;;;4.57;;
41739;SDS011;27422;52.444;13.300;2023-04-06T04:42:13;11.90;;;4.30;;
41739;SDS011;27422;52.444;13.300;2023-04-06T04:44:38;7.50;;;4.28;;
41739;SDS011;27422;52.444;13.300;2023-04-06T04:47:04;8.65;;;4.63;;
41739;SDS011;27422;52.444;13.300;2023-04-06T04:49:29;8.38;;;4.82;;
41739;SDS011;27422;52.444;13.300;2023-04-06T04:51:55;7.78;;;4.60;;
41739;SDS011;27422;52.444;13.300;2023-04-06T04:54:20;11.10;;;4.80;;
41739;SDS011;27422;52.444;13.300;2023-04-06T04:56:46;12.07;;;5.25;;
41739;SDS011;27422;52.444;13.300;2023-04-06T04:59:11;8.20;;;5.05;;
41739;SDS011;27422;52.444;13.300;2023-04-06T05:01:37;8.55;;;5.25;;
41739;SDS011;27422;52.444;13.300;2023-04-06T05:04:02;8.75;;;4.72;;
41739;SDS011;27422;52.444;13.300;2023-04-06T05:06:27;9.45;;;4.90;;
41739;SDS011;27422;52.444;13.300;2023-04-06T05:08:53;10.77;;;5.50;;
41739;SDS011;27422;52.444;13.300;2023-04-06T05:11:18;9.07;;;5.38;;
41739;SDS011;27422;52.444;13.300;2023-04-06T05:13:44;11.73;;;6.15;;
41739;SDS011;27422;52.444;13.300;2023-04-06T05:16:09;9.50;;;6.03;;
41739;SDS011;27422;52.444;13.300;2023-04-06T05:18:35;8.98;;;5.25;;
41739;SDS011;27422;52.444;13.300;2023-04-06T05:21:00;11.95;;;6.15;;
41739;SDS011;27422;52.444;13.300;2023-04-06T05:23:26;10.52;;;6.00;;
41739;SDS011;27422;52.444;13.300;2023-04-06T05:25:51;14.23;;;7.10;;
41739;SDS011;27422;52.444;13.300;2023-04-06T05:28:17;8.90;;;6.40;;
41739;SDS011;27422;52.444;13.300;2023-04-06T05:30:43;9.50;;;5.93;;
41739;SDS011;27422;52.444;13.300;2023-04-06T05:33:09;10.50;;;6.32;;
41739;SDS011;27422;52.444;13.300;2023-04-06T05:35:35;12.18;;;7.38;;
41739;SDS011;27422;52.444;13.300;2023-04-06T05:38:01;10.95;;;6.75;;
41739;SDS011;27422;52.444;13.300;2023-04-06T05:40:26;13.20;;;7.28;;
41739;SDS011;27422;52.444;13.300;2023-04-06T05:42:51;11.38;;;7.28;;
41739;SDS011;27422;52.444;13.300;2023-04-06T05:45:17;12.98;;;7.07;;
41739;SDS011;27422;52.444;13.300;2023-04-06T05:47:43;11.43;;;7.10;;
41739;SDS011;27422;52.444;13.300;2023-04-06T05:50:09;12.85;;;7.55;;
41739;SDS011;27422;52.444;13.300;2023-04-06T05:52:35;13.70;;;7.18;;
41739;SDS011;27422;52.444;13.300;2023-04-06T05:55:01;13.00;;;7.60;;
41739;SDS011;27422;52.444;13.300;2023-04-06T05:57:27;10.95;;;7.20;;
41739;SDS011;27422;52.444;13.300;2023-04-06T05:59:52;11.18;;;6.72;;
41739;SDS011;27422;52.444;13.300;2023-04-06T06:02:17;12.80;;;6.82;;
41739;SDS011;27422;52.444;13.300;2023-04-06T06:04:43;11.20;;;6.28;;
41739;SDS011;27422;52.444;13.300;2023-04-06T06:07:08;11.38;;;6.50;;
41739;SDS011;27422;52.444;13.300;2023-04-06T06:09:34;10.00;;;6.18;;
41739;SDS011;27422;52.444;13.300;2023-04-06T06:12:00;10.20;;;6.22;;
41739;SDS011;27422;52.444;13.300;2023-04-06T06:14:25;10.18;;;5.82;;
41739;SDS011;27422;52.444;13.300;2023-04-06T06:16:53;8.18;;;5.18;;
41739;SDS011;27422;52.444;13.300;2023-04-06T06:19:19;10.23;;;5.90;;
41739;SDS011;27422;52.444;13.300;2023-04-06T06:21:44;11.15;;;5.60;;
41739;SDS011;27422;52.444;13.300;2023-04-06T06:24:10;11.60;;;5.85;;
41739;SDS011;27422;52.444;13.300;2023-04-06T06:26:35;10.15;;;5.63;;
41739;SDS011;27422;52.444;13.300;2023-04-06T06:29:02;12.02;;;5.90;;
41739;SDS011;27422;52.444;13.300;2023-04-06T06:33:55;8.50;;;4.95;;
41739;SDS011;27422;52.444;13.300;2023-04-06T06:36:20;9.73;;;5.30;;
41739;SDS011;27422;52.444;13.300;2023-04-06T06:38:46;9.20;;;5.05;;
41739;SDS011;27422;52.444;13.300;2023-04-06T06:41:11;7.88;;;4.88;;
41739;SDS011;27422;52.444;13.300;2023-04-06T06:43:37;9.65;;;5.20;;
41739;SDS011;27422;52.444;13.300;2023-04-06T06:46:03;9.32;;;4.95;;
41739;SDS011;27422;52.444;13.300;2023-04-06T06:48:28;7.85;;;4.78;;
41739;SDS011;27422;52.444;13.300;2023-04-06T06:50:54;13.82;;;5.05;;
41739;SDS011;27422;52.444;13.300;2023-04-06T06:53:20;9.32;;;4.85;;
41739;SDS011;27422;52.444;13.300;2023-04-06T06:55:45;8.18;;;4.32;;
41739;SDS011;27422;52.444;13.300;2023-04-06T06:58:11;8.07;;;4.60;;
41739;SDS011;27422;52.444;13.300;2023-04-06T07:00:37;7.25;;;4.22;;
41739;SDS011;27422;52.444;13.300;2023-04-06T07:03:02;7.22;;;4.32;;
41739;SDS011;27422;52.444;13.300;2023-04-06T07:05:28;8.40;;;4.60;;
41739;SDS011;27422;52.444;13.300;2023-04-06T07:07:54;7.78;;;4.50;;
41739;SDS011;27422;52.444;13.300;2023-04-06T07:10:20;6.95;;;3.90;;
41739;SDS011;27422;52.444;13.300;2023-04-06T07:12:45;6.32;;;3.50;;
41739;SDS011;27422;52.444;13.300;2023-04-06T07:15:11;8.10;;;3.80;;
41739;SDS011;27422;52.444;13.300;2023-04-06T07:17:37;8.60;;;4.22;;
41739;SDS011;27422;52.444;13.300;2023-04-06T07:20:02;8.98;;;3.50;;
41739;SDS011;27422;52.444;13.300;2023-04-06T07:22:28;5.22;;;3.03;;
41739;SDS011;27422;52.444;13.300;2023-04-06T07:24:53;6.68;;;3.30;;
41739;SDS011;27422;52.444;13.300;2023-04-06T07:27:19;6.82;;;3.15;;
41739;SDS011;27422;52.444;13.300;2023-04-06T07:29:45;7.05;;;3.33;;
41739;SDS011;27422;52.444;13.300;2023-04-06T07:32:10;4.82;;;3.00;;
41739;SDS011;27422;52.444;13.300;2023-04-06T07:34:36;6.32;;;3.10;;
41739;SDS011;27422;52.444;13.300;2023-04-06T07:37:01;6.63;;;3.25;;
41739;SDS011;27422;52.444;13.300;2023-04-06T07:39:28;5.88;;;3.15;;
41739;SDS011;27422;52.444;13.300;2023-04-06T07:41:53;6.82;;;3.38;;
41739;SDS011;27422;52.444;13.300;2023-04-06T07:44:20;5.00;;;2.78;;
41739;SDS011;27422;52.444;13.300;2023-04-06T07:46:45;7.20;;;2.95;;
41739;SDS011;27422;52.444;13.300;2023-04-06T07:49:10;7.30;;;2.70;;
41739;SDS011;27422;52.444;13.300;2023-04-06T07:51:37;5.07;;;2.28;;
41739;SDS011;27422;52.444;13.300;2023-04-06T07:54:03;4.43;;;2.63;;
41739;SDS011;27422;52.444;13.300;2023-04-06T07:56:28;4.45;;;2.50;;
41739;SDS011;27422;52.444;13.300;2023-04-06T07:58:54;5.70;;;2.92;;
41739;SDS011;27422;52.444;13.300;2023-04-06T08:01:23;6.55;;;2.53;;
41739;SDS011;27422;52.444;13.300;2023-04-06T08:03:48;4.72;;;2.20;;
41739;SDS011;27422;52.444;13.300;2023-04-06T08:06:15;4.43;;;2.10;;
41739;SDS011;27422;52.444;13.300;2023-04-06T08:08:41;4.80;;;2.42;;
41739;SDS011;27422;52.444;13.300;2023-04-06T08:11:07;5.80;;;2.55;;
41739;SDS011;27422;52.444;13.300;2023-04-06T08:13:33;4.35;;;2.03;;
41739;SDS011;27422;52.444;13.300;2023-04-06T08:15:59;4.13;;;2.10;;
41739;SDS011;27422;52.444;13.300;2023-04-06T08:18:25;4.68;;;2.35;;
41739;SDS011;27422;52.444;13.300;2023-04-06T08:20:50;4.05;;;1.92;;
41739;SDS011;27422;52.444;13.300;2023-04-06T08:23:16;5.80;;;2.20;;
41739;SDS011;27422;52.444;13.300;2023-04-06T08:25:41;7.22;;;2.00;;
41739;SDS011;27422;52.444;13.300;2023-04-06T08:28:07;5.90;;;2.40;;
41739;SDS011;27422;52.444;13.300;2023-04-06T08:30:34;5.18;;;2.33;;
41739;SDS011;27422;52.444;13.300;2023-04-06T08:32:59;3.60;;;2.00;;
41739;SDS011;27422;52.444;13.300;2023-04-06T08:35:25;3.83;;;1.92;;
41739;SDS011;27422;52.444;13.300;2023-04-06T08:37:51;5.78;;;2.13;;
41739;SDS011;27422;52.444;13.300;2023-04-06T08:40:16;5.20;;;2.45;;
41739;SDS011;27422;52.444;13.300;2023-04-06T08:42:44;3.75;;;1.90;;
41739;SDS011;27422;52.444;13.300;2023-04-06T08:45:14;2.45;;;1.20;;
41739;SDS011;27422;52.444;13.300;2023-04-06T08:47:41;4.20;;;1.83;;
41739;SDS011;27422;52.444;13.300;2023-04-06T08:50:07;3.45;;;1.65;;
41739;SDS011;27422;52.444;13.300;2023-04-06T08:52:33;3.17;;;1.65;;
41739;SDS011;27422;52.444;13.300;2023-04-06T08:55:01;3.97;;;1.60;;
41739;SDS011;27422;52.444;13.300;2023-04-06T08:57:27;3.75;;;1.60;;
41739;SDS011;27422;52.444;13.300;2023-04-06T08:59:52;3.85;;;2.05;;
41739;SDS011;27422;52.444;13.300;2023-04-06T09:02:19;3.67;;;1.60;;
41739;SDS011;27422;52.444;13.300;2023-04-06T09:04:48;3.88;;;1.50;;
41739;SDS011;27422;52.444;13.300;2023-04-06T09:07:14;3.05;;;1.40;;
41739;SDS011;27422;52.444;13.300;2023-04-06T09:09:40;2.85;;;1.38;;
41739;SDS011;27422;52.444;13.300;2023-04-06T09:12:21;5.65;;;1.58;;
41739;SDS011;27422;52.444;13.300;2023-04-06T09:14:54;2.85;;;1.30;;
41739;SDS011;27422;52.444;13.300;2023-04-06T09:17:30;2.87;;;1.30;;
41739;SDS011;27422;52.444;13.300;2023-04-06T09:22:24;3.03;;;1.23;;
41739;SDS011;27422;52.444;13.300;2023-04-06T09:24:51;4.07;;;1.40;;
41739;SDS011;27422;52.444;13.300;2023-04-06T09:27:18;3.40;;;1.30;;
41739;SDS011;27422;52.444;13.300;2023-04-06T09:30:02;3.88;;;1.30;;
41739;SDS011;27422;52.444;13.300;2023-04-06T09:33:11;4.03;;;1.40;;
41739;SDS011;27422;52.444;13.300;2023-04-06T09:35:30;4.65;;;1.40;;
41739;SDS011;27422;52.444;13.300;2023-04-06T09:40:23;2.90;;;1.00;;
41739;SDS011;27422;52.444;13.300;2023-04-06T09:42:49;3.33;;;1.25;;
41739;SDS011;27422;52.444;13.300;2023-04-06T09:45:17;3.05;;;1.40;;
41739;SDS011;27422;52.444;13.300;2023-04-06T09:47:43;3.55;;;1.17;;
41739;SDS011;27422;52.444;13.300;2023-04-06T09:50:13;3.05;;;1.35;;
41739;SDS011;27422;52.444;13.300;2023-04-06T09:52:46;2.72;;;1.23;;
41739;SDS011;27422;52.444;13.300;2023-04-06T09:55:26;2.75;;;1.25;;
41739;SDS011;27422;52.444;13.300;2023-04-06T10:00:32;2.95;;;1.48;;
41739;SDS011;27422;52.444;13.300;2023-04-06T10:03:07;3.33;;;1.40;;
41739;SDS011;27422;52.444;13.300;2023-04-06T10:08:18;3.65;;;1.40;;
41739;SDS011;27422;52.444;13.300;2023-04-06T10:10:44;2.58;;;1.02;;
41739;SDS011;27422;52.444;13.300;2023-04-06T10:13:10;2.80;;;1.35;;
41739;SDS011;27422;52.444;13.300;2023-04-06T10:15:36;4.32;;;1.33;;
41739;SDS011;27422;52.444;13.300;2023-04-06T10:18:03;2.95;;;1.33;;
41739;SDS011;27422;52.444;13.300;2023-04-06T10:23:12;2.97;;;1.20;;
41739;SDS011;27422;52.444;13.300;2023-04-06T10:25:51;2.95;;;1.35;;
41739;SDS011;27422;52.444;13.300;2023-04-06T10:28:23;2.95;;;1.25;;
41739;SDS011;27422;52.444;13.300;2023-04-06T10:30:49;3.25;;;1.40;;
41739;SDS011;27422;52.444;13.300;2023-04-06T10:33:21;3.53;;;1.45;;
41739;SDS011;27422;52.444;13.300;2023-04-06T10:35:47;7.07;;;2.35;;
41739;SDS011;27422;52.444;13.300;2023-04-06T10:38:12;2.95;;;1.35;;
41739;SDS011;27422;52.444;13.300;2023-04-06T10:40:45;4.00;;;1.27;;
41739;SDS011;27422;52.444;13.300;2023-04-06T10:43:18;2.88;;;1.30;;
41739;SDS011;27422;52.444;13.300;2023-04-06T10:45:44;4.15;;;1.50;;
41739;SDS011;27422;52.444;13.300;2023-04-06T10:48:13;3.38;;;1.40;;
41739;SDS011;27422;52.444;13.300;2023-04-06T10:50:41;2.30;;;1.17;;
41739;SDS011;27422;52.444;13.300;2023-04-06T10:53:08;3.42;;;1.50;;
41739;SDS011;27422;52.444;13.300;2023-04-06T10:55:33;3.33;;;1.30;;
41739;SDS011;27422;52.444;13.300;2023-04-06T10:57:59;2.88;;;1.20;;
41739;SDS011;27422;52.444;13.300;2023-04-06T11:00:25;2.50;;;1.13;;
41739;SDS011;27422;52.444;13.300;2023-04-06T11:02:51;4.13;;;1.42;;
41739;SDS011;27422;52.444;13.300;2023-04-06T11:05:17;2.78;;;1.20;;
41739;SDS011;27422;52.444;13.300;2023-04-06T11:07:44;2.45;;;1.05;;
41739;SDS011;27422;52.444;13.300;2023-04-06T11:10:09;2.63;;;1.17;;
41739;SDS011;27422;52.444;13.300;2023-04-06T11:12:35;4.07;;;1.48;;
41739;SDS011;27422;52.444;13.300;2023-04-06T11:15:01;3.40;;;1.50;;
41739;SDS011;27422;52.444;13.300;2023-04-06T11:17:29;2.78;;;1.33;;
41739;SDS011;27422;52.444;13.300;2023-04-06T11:19:56;2.63;;;1.20;;
41739;SDS011;27422;52.444;13.300;2023-04-06T11:22:22;2.80;;;1.48;;
41739;SDS011;27422;52.444;13.300;2023-04-06T11:24:47;2.97;;;1.40;;
41739;SDS011;27422;52.444;13.300;2023-04-06T11:27:14;4.25;;;1.70;;
41739;SDS011;27422;52.444;13.300;2023-04-06T11:29:41;3.10;;;1.42;;
41739;SDS011;27422;52.444;13.300;2023-04-06T11:32:07;3.42;;;1.27;;
41739;SDS011;27422;52.444;13.300;2023-04-06T11:34:36;3.42;;;1.40;;
41739;SDS011;27422;52.444;13.300;2023-04-06T11:37:04;3.03;;;1.50;;
41739;SDS011;27422;52.444;13.300;2023-04-06T11:39:37;3.20;;;1.48;;
41739;SDS011;27422;52.444;13.300;2023-04-06T11:42:04;2.58;;;1.27;;
41739;SDS011;27422;52.444;13.300;2023-04-06T11:44:33;2.53;;;1.42;;
41739;SDS011;27422;52.444;13.300;2023-04-06T11:47:04;3.35;;;1.70;;
41739;SDS011;27422;52.444;13.300;2023-04-06T11:51:57;2.80;;;1.20;;
41739;SDS011;27422;52.444;13.300;2023-04-06T11:54:30;3.20;;;1.55;;
41739;SDS011;27422;52.444;13.300;2023-04-06T11:56:55;2.40;;;1.10;;
41739;SDS011;27422;52.444;13.300;2023-04-06T11:59:21;2.72;;;1.27;;
41739;SDS011;27422;52.444;13.300;2023-04-06T12:01:47;3.40;;;1.75;;
41739;SDS011;27422;52.444;13.300;2023-04-06T12:04:13;3.67;;;1.60;;
41739;SDS011;27422;52.444;13.300;2023-04-06T12:06:39;4.55;;;1.65;;
41739;SDS011;27422;52.444;13.300;2023-04-06T12:09:05;3.80;;;1.70;;
41739;SDS011;27422;52.444;13.300;2023-04-06T12:11:30;4.43;;;1.70;;
41739;SDS011;27422;52.444;13.300;2023-04-06T12:13:55;3.08;;;1.45;;
41739;SDS011;27422;52.444;13.300;2023-04-06T12:16:21;3.78;;;1.83;;
41739;SDS011;27422;52.444;13.300;2023-04-06T12:18:46;3.20;;;1.70;;
41739;SDS011;27422;52.444;13.300;2023-04-06T12:21:12;3.97;;;1.80;;
41739;SDS011;27422;52.444;13.300;2023-04-06T12:23:37;3.05;;;1.60;;
41739;SDS011;27422;52.444;13.300;2023-04-06T12:26:02;3.28;;;1.73;;
41739;SDS011;27422;52.444;13.300;2023-04-06T12:28:28;3.50;;;1.60;;
41739;SDS011;27422;52.444;13.300;2023-04-06T12:30:54;3.47;;;1.60;;
41739;SDS011;27422;52.444;13.300;2023-04-06T12:33:20;4.05;;;2.13;;
41739;SDS011;27422;52.444;13.300;2023-04-06T12:35:46;3.28;;;1.52;;
41739;SDS011;27422;52.444;13.300;2023-04-06T12:38:11;4.18;;;2.28;;
41739;SDS011;27422;52.444;13.300;2023-04-06T12:40:39;5.40;;;2.00;;
41739;SDS011;27422;52.444;13.300;2023-04-06T12:43:05;4.22;;;2.10;;
41739;SDS011;27422;52.444;13.300;2023-04-06T12:45:31;3.90;;;2.00;;
41739;SDS011;27422;52.444;13.300;2023-04-06T12:47:56;4.25;;;2.20;;
41739;SDS011;27422;52.444;13.300;2023-04-06T12:50:22;3.35;;;1.77;;
41739;SDS011;27422;52.444;13.300;2023-04-06T12:52:47;4.18;;;1.92;;
41739;SDS011;27422;52.444;13.300;2023-04-06T12:55:13;3.88;;;2.03;;
41739;SDS011;27422;52.444;13.300;2023-04-06T12:57:38;3.25;;;1.75;;
41739;SDS011;27422;52.444;13.300;2023-04-06T13:00:05;3.78;;;2.10;;
41739;SDS011;27422;52.444;13.300;2023-04-06T13:02:31;3.25;;;2.03;;
41739;SDS011;27422;52.444;13.300;2023-04-06T13:04:56;3.47;;;2.00;;
41739;SDS011;27422;52.444;13.300;2023-04-06T13:07:22;3.35;;;1.83;;
41739;SDS011;27422;52.444;13.300;2023-04-06T13:09:47;3.10;;;1.80;;
41739;SDS011;27422;52.444;13.300;2023-04-06T13:12:14;3.80;;;1.87;;
41739;SDS011;27422;52.444;13.300;2023-04-06T13:14:40;3.83;;;1.85;;
41739;SDS011;27422;52.444;13.300;2023-04-06T13:17:06;4.95;;;2.15;;
41739;SDS011;27422;52.444;13.300;2023-04-06T13:19:32;4.65;;;2.10;;
41739;SDS011;27422;52.444;13.300;2023-04-06T13:21:57;4.03;;;1.88;;
41739;SDS011;27422;52.444;13.300;2023-04-06T13:24:23;3.45;;;1.90;;
41739;SDS011;27422;52.444;13.300;2023-04-06T13:26:49;3.83;;;2.22;;
41739;SDS011;27422;52.444;13.300;2023-04-06T13:29:14;4.57;;;1.98;;
41739;SDS011;27422;52.444;13.300;2023-04-06T13:31:40;4.70;;;2.45;;
41739;SDS011;27422;52.444;13.300;2023-04-06T13:34:05;5.30;;;2.50;;
41739;SDS011;27422;52.444;13.300;2023-04-06T13:36:31;3.67;;;2.10;;
41739;SDS011;27422;52.444;13.300;2023-04-06T13:38:57;4.85;;;2.17;;
41739;SDS011;27422;52.444;13.300;2023-04-06T13:41:23;4.30;;;2.40;;
41739;SDS011;27422;52.444;13.300;2023-04-06T13:43:50;4.78;;;2.30;;
41739;SDS011;27422;52.444;13.300;2023-04-06T13:46:16;3.75;;;1.90;;
41739;SDS011;27422;52.444;13.300;2023-04-06T13:48:42;3.70;;;2.10;;
41739;SDS011;27422;52.444;13.300;2023-04-06T13:51:11;4.35;;;2.47;;
41739;SDS011;27422;52.444;13.300;2023-04-06T13:53:37;4.05;;;2.22;;
41739;SDS011;27422;52.444;13.300;2023-04-06T13:56:03;4.15;;;2.25;;
41739;SDS011;27422;52.444;13.300;2023-04-06T13:58:28;5.30;;;2.17;;
41739;SDS011;27422;52.444;13.300;2023-04-06T14:00:53;4.15;;;2.40;;
41739;SDS011;27422;52.444;13.300;2023-04-06T14:03:19;3.40;;;2.10;;
41739;SDS011;27422;52.444;13.300;2023-04-06T14:05:45;3.60;;;2.00;;
41739;SDS011;27422;52.444;13.300;2023-04-06T14:08:10;4.57;;;2.00;;
41739;SDS011;27422;52.444;13.300;2023-04-06T14:10:36;4.95;;;2.67;;
41739;SDS011;27422;52.444;13.300;2023-04-06T14:13:03;9.02;;;4.15;;
41739;SDS011;27422;52.444;13.300;2023-04-06T14:15:29;4.10;;;2.15;;
41739;SDS011;27422;52.444;13.300;2023-04-06T14:17:55;5.93;;;3.00;;
41739;SDS011;27422;52.444;13.300;2023-04-06T14:20:20;4.30;;;1.90;;
41739;SDS011;27422;52.444;13.300;2023-04-06T14:22:46;3.67;;;1.95;;
41739;SDS011;27422;52.444;13.300;2023-04-06T14:25:11;4.43;;;2.10;;
41739;SDS011;27422;52.444;13.300;2023-04-06T14:27:37;5.25;;;2.10;;
41739;SDS011;27422;52.444;13.300;2023-04-06T14:30:03;4.55;;;1.90;;
41739;SDS011;27422;52.444;13.300;2023-04-06T14:32:29;4.90;;;1.90;;
41739;SDS011;27422;52.444;13.300;2023-04-06T14:34:54;3.70;;;2.00;;
41739;SDS011;27422;52.444;13.300;2023-04-06T14:37:20;4.30;;;1.90;;
41739;SDS011;27422;52.444;13.300;2023-04-06T14:39:47;4.78;;;1.90;;
41739;SDS011;27422;52.444;13.300;2023-04-06T14:42:12;3.90;;;2.00;;
41739;SDS011;27422;52.444;13.300;2023-04-06T14:44:38;3.67;;;1.98;;
41739;SDS011;27422;52.444;13.300;2023-04-06T14:47:07;4.82;;;2.17;;